createdAt,value
2018-05-29T00:00:54.548Z,0.00
2018-05-29T00:01:54.545Z,0.00
2018-05-29T00:02:54.549Z,0.00
2018-05-29T00:03:54.546Z,0.00
2018-05-29T00:04:54.546Z,0.00
2018-05-29T00:05:54.542Z,0.00
2018-05-29T00:06:54.540Z,0.00
2018-05-29T00:07:54.538Z,0.00
2018-05-29T00:08:54.535Z,0.00
2018-05-29T00:09:54.539Z,0.00
2018-05-29T00:10:54.537Z,0.00
2018-05-29T00:11:54.531Z,0.00
2018-05-29T00:12:54.537Z,0.00
2018-05-29T00:13:54.532Z,0.00
2018-05-29T00:14:54.525Z,0.00
2018-05-29T00:15:54.542Z,0.00
2018-05-29T00:16:54.548Z,0.00
2018-05-29T00:17:54.530Z,0.00
2018-05-29T00:18:54.534Z,0.00
2018-05-29T00:19:54.534Z,0.00
2018-05-29T00:20:54.539Z,0.00
2018-05-29T00:21:54.541Z,0.00
2018-05-29T00:22:54.508Z,0.00
2018-05-29T00:23:54.545Z,0.00
2018-05-29T00:24:54.509Z,0.00
2018-05-29T00:25:54.531Z,0.00
2018-05-29T00:26:54.504Z,0.00
2018-05-29T00:27:54.501Z,0.00
2018-05-29T00:28:54.499Z,0.00
2018-05-29T00:29:54.495Z,0.00
2018-05-29T00:30:54.515Z,0.00
2018-05-29T00:31:54.498Z,0.00
2018-05-29T00:32:54.491Z,0.00
2018-05-29T00:33:54.489Z,0.00
2018-05-29T00:34:54.489Z,0.00
2018-05-29T00:35:54.489Z,0.00
2018-05-29T00:36:54.490Z,0.00
2018-05-29T00:37:54.489Z,0.00
2018-05-29T00:38:54.479Z,0.00
2018-05-29T00:39:54.477Z,0.00
2018-05-29T00:40:54.478Z,0.00
2018-05-29T00:41:54.475Z,0.00
2018-05-29T00:42:54.477Z,0.00
2018-05-29T00:43:54.470Z,0.00
2018-05-29T00:44:54.469Z,0.00
2018-05-29T00:45:54.467Z,0.00
2018-05-29T00:46:54.468Z,0.00
2018-05-29T00:47:54.466Z,0.00
2018-05-29T00:48:54.464Z,0.00
2018-05-29T00:49:54.456Z,0.00
2018-05-29T00:50:54.455Z,0.00
2018-05-29T00:51:54.453Z,0.00
2018-05-29T00:52:54.455Z,0.00
2018-05-29T00:53:54.456Z,0.00
2018-05-29T00:54:54.449Z,0.00
2018-05-29T00:55:54.445Z,0.00
2018-05-29T00:56:54.443Z,0.00
2018-05-29T00:57:54.439Z,0.00
2018-05-29T00:58:54.437Z,0.00
2018-05-29T00:59:54.439Z,0.00
2018-05-29T01:00:54.434Z,0.00
2018-05-29T01:01:54.435Z,0.00
2018-05-29T01:02:54.431Z,0.00
2018-05-29T01:03:54.427Z,0.00
2018-05-29T01:04:54.428Z,0.00
2018-05-29T01:05:54.425Z,0.00
2018-05-29T01:06:54.425Z,0.00
2018-05-29T01:07:54.421Z,0.00
2018-05-29T01:08:54.420Z,0.00
2018-05-29T01:09:54.412Z,0.00
2018-05-29T01:10:54.417Z,0.00
2018-05-29T01:11:54.409Z,0.00
2018-05-29T01:12:54.410Z,0.00
2018-05-29T01:13:54.409Z,0.00
2018-05-29T01:14:54.404Z,0.00
2018-05-29T01:15:54.411Z,0.00
2018-05-29T01:16:54.400Z,0.00
2018-05-29T01:17:54.397Z,0.00
2018-05-29T01:18:54.398Z,0.00
2018-05-29T01:19:54.398Z,0.00
2018-05-29T01:20:54.396Z,0.00
2018-05-29T01:21:54.393Z,0.00
2018-05-29T01:22:54.387Z,0.00
2018-05-29T01:23:54.384Z,0.00
2018-05-29T01:24:54.418Z,0.00
2018-05-29T01:25:54.405Z,0.00
2018-05-29T01:26:54.380Z,0.00
2018-05-29T01:27:54.382Z,0.00
2018-05-29T01:28:54.375Z,0.00
2018-05-29T01:29:54.377Z,0.00
2018-05-29T01:30:54.379Z,0.00
2018-05-29T01:31:54.371Z,0.00
2018-05-29T01:32:54.365Z,0.00
2018-05-29T01:33:54.369Z,0.00
2018-05-29T01:34:54.365Z,0.00
2018-05-29T01:35:54.363Z,0.00
2018-05-29T01:36:54.361Z,0.00
2018-05-29T01:37:54.354Z,0.00
2018-05-29T01:38:54.355Z,0.00
2018-05-29T01:39:54.351Z,0.00
2018-05-29T01:40:54.351Z,0.00
2018-05-29T01:41:54.347Z,0.00
2018-05-29T01:42:54.349Z,0.00
2018-05-29T01:43:54.343Z,0.00
2018-05-29T01:44:54.345Z,0.00
2018-05-29T01:45:54.336Z,0.00
2018-05-29T01:46:54.335Z,0.00
2018-05-29T01:47:54.339Z,0.00
2018-05-29T01:48:54.333Z,0.00
2018-05-29T01:49:54.330Z,0.00
2018-05-29T01:50:54.325Z,0.00
2018-05-29T01:51:54.323Z,0.00
2018-05-29T01:52:54.323Z,0.00
2018-05-29T01:53:54.320Z,0.00
2018-05-29T01:54:54.317Z,0.00
2018-05-29T01:55:54.319Z,0.00
2018-05-29T01:56:54.317Z,0.00
2018-05-29T01:57:54.312Z,0.00
2018-05-29T01:58:54.317Z,0.00
2018-05-29T01:59:54.305Z,0.00
2018-05-29T02:00:54.313Z,0.00
2018-05-29T02:01:54.301Z,0.00
2018-05-29T02:02:54.302Z,0.00
2018-05-29T02:03:54.299Z,0.00
2018-05-29T02:04:54.314Z,0.00
2018-05-29T02:05:54.293Z,0.00
2018-05-29T02:06:54.294Z,0.00
2018-05-29T02:07:54.290Z,0.00
2018-05-29T02:08:54.289Z,0.00
2018-05-29T02:09:54.287Z,0.00
2018-05-29T02:10:54.300Z,0.00
2018-05-29T02:11:54.280Z,0.00
2018-05-29T02:12:54.276Z,0.00
2018-05-29T02:13:54.275Z,0.00
2018-05-29T02:14:54.271Z,0.00
2018-05-29T02:15:54.274Z,0.00
2018-05-29T02:16:54.272Z,0.00
2018-05-29T02:17:54.267Z,0.00
2018-05-29T02:18:54.266Z,0.00
2018-05-29T02:19:54.259Z,0.00
2018-05-29T02:20:54.256Z,0.00
2018-05-29T02:21:54.255Z,0.00
2018-05-29T02:22:54.252Z,0.00
2018-05-29T02:23:54.254Z,0.00
2018-05-29T02:24:54.252Z,0.00
2018-05-29T02:25:54.245Z,0.00
2018-05-29T02:26:54.245Z,0.00
2018-05-29T02:27:54.245Z,0.00
2018-05-29T02:28:54.239Z,0.00
2018-05-29T02:29:54.239Z,0.00
2018-05-29T02:30:54.236Z,0.00
2018-05-29T02:31:54.237Z,0.00
2018-05-29T02:32:54.261Z,0.00
2018-05-29T02:33:54.225Z,0.00
2018-05-29T02:34:54.224Z,0.00
2018-05-29T02:35:54.221Z,0.00
2018-05-29T02:36:54.224Z,0.00
2018-05-29T02:37:54.223Z,0.00
2018-05-29T02:38:54.219Z,4.00
2018-05-29T02:39:54.218Z,4.00
2018-05-29T02:40:54.212Z,0.00
2018-05-29T02:41:54.208Z,0.00
2018-05-29T02:42:54.207Z,4.00
2018-05-29T02:43:54.212Z,4.00
2018-05-29T02:44:54.201Z,4.00
2018-05-29T02:45:54.200Z,4.00
2018-05-29T02:46:54.199Z,8.00
2018-05-29T02:47:54.197Z,4.00
2018-05-29T02:48:54.204Z,8.00
2018-05-29T02:49:54.187Z,8.00
2018-05-29T02:50:54.189Z,8.00
2018-05-29T02:51:54.188Z,12.00
2018-05-29T02:52:54.187Z,12.00
2018-05-29T02:53:54.180Z,16.00
2018-05-29T02:54:54.174Z,12.00
2018-05-29T02:55:54.172Z,16.00
2018-05-29T02:56:54.172Z,20.00
2018-05-29T02:57:54.176Z,24.00
2018-05-29T02:58:54.168Z,24.00
2018-05-29T02:59:54.169Z,28.00
2018-05-29T03:00:54.161Z,32.00
2018-05-29T03:01:54.157Z,36.00
2018-05-29T03:02:54.154Z,40.00
2018-05-29T03:03:54.155Z,48.00
2018-05-29T03:04:54.153Z,52.00
2018-05-29T03:05:54.150Z,56.00
2018-05-29T03:06:54.146Z,68.00
2018-05-29T03:07:54.145Z,72.00
2018-05-29T03:08:54.140Z,80.00
2018-05-29T03:09:54.141Z,88.00
2018-05-29T03:10:54.134Z,96.00
2018-05-29T03:11:54.136Z,108.00
2018-05-29T03:12:54.133Z,120.00
2018-05-29T03:13:54.130Z,128.00
2018-05-29T03:14:54.128Z,144.00
2018-05-29T03:15:54.120Z,156.00
2018-05-29T03:16:54.120Z,164.00
2018-05-29T03:17:54.124Z,180.00
2018-05-29T03:18:54.118Z,192.00
2018-05-29T03:19:54.116Z,204.00
2018-05-29T03:20:54.148Z,216.00
2018-05-29T03:21:54.107Z,228.00
2018-05-29T03:22:54.103Z,244.00
2018-05-29T03:23:54.105Z,264.00
2018-05-29T03:24:54.099Z,280.00
2018-05-29T03:25:54.099Z,300.00
2018-05-29T03:26:54.099Z,324.00
2018-05-29T03:27:54.090Z,348.00
2018-05-29T03:28:54.095Z,372.00
2018-05-29T03:29:54.085Z,396.00
2018-05-29T03:30:54.084Z,424.00
2018-05-29T03:31:54.081Z,452.00
2018-05-29T03:32:54.085Z,484.00
2018-05-29T03:33:54.081Z,512.00
2018-05-29T03:34:54.078Z,548.00
2018-05-29T03:35:54.069Z,580.00
2018-05-29T03:36:54.069Z,608.00
2018-05-29T03:37:54.066Z,644.00
2018-05-29T03:38:54.064Z,676.00
2018-05-29T03:39:54.067Z,704.00
2018-05-29T03:40:54.060Z,740.00
2018-05-29T03:41:54.057Z,772.00
2018-05-29T03:42:54.059Z,800.00
2018-05-29T03:43:54.057Z,832.00
2018-05-29T03:44:54.057Z,864.00
2018-05-29T03:45:54.043Z,896.00
2018-05-29T03:46:54.052Z,928.00
2018-05-29T03:47:54.040Z,960.00
2018-05-29T03:48:54.042Z,988.00
2018-05-29T03:49:54.048Z,1020.00
2018-05-29T03:50:54.039Z,1044.00
2018-05-29T03:51:54.037Z,1072.00
2018-05-29T03:52:54.029Z,1100.00
2018-05-29T03:53:54.029Z,1124.00
2018-05-29T03:54:54.040Z,1156.00
2018-05-29T03:55:54.024Z,1184.00
2018-05-29T03:56:54.019Z,1216.00
2018-05-29T03:57:54.016Z,1244.00
2018-05-29T03:58:54.012Z,1272.00
2018-05-29T03:59:54.011Z,1304.00
2018-05-29T04:00:54.007Z,1340.00
2018-05-29T04:01:54.008Z,1376.00
2018-05-29T04:02:54.004Z,1408.00
2018-05-29T04:03:54.004Z,1436.00
2018-05-29T04:04:53.996Z,1464.00
2018-05-29T04:05:53.994Z,1492.00
2018-05-29T04:06:53.990Z,1520.00
2018-05-29T04:07:53.988Z,1548.00
2018-05-29T04:08:53.989Z,1572.00
2018-05-29T04:09:53.998Z,1596.00
2018-05-29T04:10:53.984Z,1620.00
2018-05-29T04:11:53.986Z,1644.00
2018-05-29T04:12:53.975Z,1668.00
2018-05-29T04:13:53.982Z,1684.00
2018-05-29T04:14:53.974Z,1708.00
2018-05-29T04:15:54.055Z,1728.00
2018-05-29T04:16:53.996Z,1752.00
2018-05-29T04:17:53.963Z,1776.00
2018-05-29T04:18:53.958Z,1804.00
2018-05-29T04:19:53.958Z,1828.00
2018-05-29T04:20:53.962Z,1856.00
2018-05-29T04:21:53.970Z,1884.00
2018-05-29T04:22:53.954Z,1912.00
2018-05-29T04:23:53.954Z,1944.00
2018-05-29T04:24:53.954Z,1976.00
2018-05-29T04:25:53.944Z,2008.00
2018-05-29T04:26:53.942Z,2040.00
2018-05-29T04:27:53.939Z,2072.00
2018-05-29T04:28:53.942Z,2108.00
2018-05-29T04:29:53.936Z,2144.00
2018-05-29T04:30:53.932Z,2184.00
2018-05-29T04:31:53.933Z,2228.00
2018-05-29T04:32:53.928Z,2272.00
2018-05-29T04:33:53.923Z,2312.00
2018-05-29T04:34:53.922Z,2352.00
2018-05-29T04:35:53.921Z,2400.00
2018-05-29T04:36:53.917Z,2444.00
2018-05-29T04:37:53.916Z,2488.00
2018-05-29T04:38:53.912Z,2532.00
2018-05-29T04:39:53.911Z,2572.00
2018-05-29T04:40:53.907Z,2616.00
2018-05-29T04:41:53.923Z,2672.00
2018-05-29T04:42:53.903Z,2728.00
2018-05-29T04:43:53.900Z,2776.00
2018-05-29T04:44:53.899Z,2828.00
2018-05-29T04:45:53.895Z,2872.00
2018-05-29T04:46:53.891Z,2924.00
2018-05-29T04:47:53.893Z,2976.00
2018-05-29T04:48:53.891Z,3028.00
2018-05-29T04:49:53.888Z,3072.00
2018-05-29T04:50:53.882Z,3116.00
2018-05-29T04:51:53.894Z,3148.00
2018-05-29T04:52:53.881Z,3176.00
2018-05-29T04:53:53.879Z,3208.00
2018-05-29T04:54:53.875Z,3252.00
2018-05-29T04:55:53.873Z,3292.00
2018-05-29T04:56:53.868Z,3336.00
2018-05-29T04:57:53.867Z,3396.00
2018-05-29T04:58:53.863Z,3432.00
2018-05-29T04:59:53.862Z,3432.00
2018-05-29T05:00:53.856Z,3448.00
2018-05-29T05:01:53.859Z,3492.00
2018-05-29T05:02:53.853Z,3556.00
2018-05-29T05:03:53.867Z,3632.00
2018-05-29T05:04:53.852Z,3704.00
2018-05-29T05:05:53.881Z,3780.00
2018-05-29T05:06:53.848Z,3860.00
2018-05-29T05:07:53.871Z,3932.00
2018-05-29T05:08:53.841Z,4012.00
2018-05-29T05:09:53.833Z,4096.00
2018-05-29T05:10:53.837Z,4180.00
2018-05-29T05:11:53.833Z,4316.00
2018-05-29T05:12:53.834Z,4476.00
2018-05-29T05:13:53.828Z,4668.00
2018-05-29T05:14:53.827Z,4912.00
2018-05-29T05:15:53.822Z,5248.00
2018-05-29T05:16:53.821Z,5708.00
2018-05-29T05:17:53.823Z,6068.00
2018-05-29T05:18:53.819Z,6336.00
2018-05-29T05:19:53.841Z,6596.00
2018-05-29T05:20:53.817Z,6876.00
2018-05-29T05:21:53.813Z,7112.00
2018-05-29T05:22:53.812Z,7412.00
2018-05-29T05:23:53.814Z,7600.00
2018-05-29T05:24:53.808Z,7808.00
2018-05-29T05:25:53.807Z,8124.00
2018-05-29T05:26:53.803Z,8528.00
2018-05-29T05:27:53.811Z,8728.00
2018-05-29T05:28:53.804Z,8996.00
2018-05-29T05:29:53.802Z,9188.00
2018-05-29T05:30:53.801Z,9492.00
2018-05-29T05:31:53.808Z,9624.00
2018-05-29T05:32:53.801Z,9764.00
2018-05-29T05:33:53.796Z,10012.00
2018-05-29T05:34:53.806Z,10108.00
2018-05-29T05:35:53.806Z,10264.00
2018-05-29T05:36:53.791Z,10356.00
2018-05-29T05:37:53.789Z,10320.00
2018-05-29T05:38:53.792Z,10356.00
2018-05-29T05:39:53.793Z,10548.00
2018-05-29T05:40:53.796Z,10928.00
2018-05-29T05:41:53.811Z,11272.00
2018-05-29T05:42:53.799Z,11580.00
2018-05-29T05:43:53.788Z,11640.00
2018-05-29T05:44:53.795Z,11472.00
2018-05-29T05:45:53.796Z,11744.00
2018-05-29T05:46:53.808Z,12172.00
2018-05-29T05:47:53.789Z,12424.00
2018-05-29T05:48:53.793Z,12748.00
2018-05-29T05:49:53.790Z,12880.00
2018-05-29T05:50:53.859Z,13132.00
2018-05-29T05:51:53.787Z,13296.00
2018-05-29T05:52:53.787Z,13480.00
2018-05-29T05:53:53.791Z,13628.00
2018-05-29T05:54:53.791Z,13724.00
2018-05-29T05:55:53.792Z,14140.00
2018-05-29T05:56:53.799Z,14540.00
2018-05-29T05:57:53.804Z,14976.00
2018-05-29T05:58:53.810Z,15136.00
2018-05-29T05:59:53.803Z,15456.00
2018-05-29T06:00:53.798Z,15552.00
2018-05-29T06:01:53.808Z,15808.00
2018-05-29T06:02:53.820Z,16416.00
2018-05-29T06:03:53.823Z,16384.00
2018-05-29T06:04:53.802Z,16736.00
2018-05-29T06:05:53.807Z,17120.00
2018-05-29T06:06:53.816Z,17088.00
2018-05-29T06:07:53.803Z,16352.00
2018-05-29T06:08:53.813Z,15904.00
2018-05-29T06:09:53.806Z,12916.00
2018-05-29T06:10:53.807Z,11084.00
2018-05-29T06:11:53.813Z,14956.00
2018-05-29T06:12:53.820Z,18528.00
2018-05-29T06:13:53.818Z,19104.00
2018-05-29T06:14:53.824Z,19360.00
2018-05-29T06:15:53.820Z,19680.00
2018-05-29T06:16:53.824Z,19776.00
2018-05-29T06:17:53.830Z,19808.00
2018-05-29T06:18:53.832Z,19424.00
2018-05-29T06:19:53.829Z,20224.00
2018-05-29T06:20:53.840Z,21088.00
2018-05-29T06:21:53.834Z,20512.00
2018-05-29T06:22:53.837Z,20480.00
2018-05-29T06:23:53.851Z,21824.00
2018-05-29T06:24:53.842Z,22496.00
2018-05-29T06:25:53.842Z,22656.00
2018-05-29T06:26:53.848Z,22560.00
2018-05-29T06:27:53.852Z,22368.00
2018-05-29T06:28:53.870Z,22464.00
2018-05-29T06:29:53.858Z,22592.00
2018-05-29T06:30:53.860Z,22656.00
2018-05-29T06:31:53.867Z,22464.00
2018-05-29T06:32:53.866Z,22240.00
2018-05-29T06:33:53.871Z,22816.00
2018-05-29T06:34:53.871Z,23584.00
2018-05-29T06:35:53.876Z,23744.00
2018-05-29T06:36:53.879Z,23552.00
2018-05-29T06:37:53.886Z,23904.00
2018-05-29T06:38:53.884Z,24576.00
2018-05-29T06:39:53.891Z,24672.00
2018-05-29T06:40:53.891Z,25408.00
2018-05-29T06:41:53.896Z,25728.00
2018-05-29T06:42:53.907Z,25152.00
2018-05-29T06:43:53.911Z,25344.00
2018-05-29T06:44:53.983Z,26048.00
2018-05-29T06:45:53.913Z,26368.00
2018-05-29T06:46:53.917Z,26560.00
2018-05-29T06:47:53.947Z,25568.00
2018-05-29T06:48:53.936Z,25216.00
2018-05-29T06:49:53.933Z,25568.00
2018-05-29T06:50:53.941Z,25952.00
2018-05-29T06:51:53.938Z,25952.00
2018-05-29T06:52:53.943Z,25664.00
2018-05-29T06:53:53.954Z,26592.00
2018-05-29T06:54:53.963Z,27360.00
2018-05-29T06:55:53.964Z,26912.00
2018-05-29T06:56:53.964Z,27520.00
2018-05-29T06:57:53.970Z,28992.00
2018-05-29T06:58:53.976Z,29376.00
2018-05-29T06:59:53.981Z,29760.00
2018-05-29T07:00:53.986Z,30240.00
2018-05-29T07:01:53.989Z,30208.00
2018-05-29T07:02:53.996Z,30048.00
2018-05-29T07:03:54.063Z,30688.00
2018-05-29T07:04:54.010Z,30848.00
2018-05-29T07:05:54.037Z,31136.00
2018-05-29T07:06:54.022Z,31296.00
2018-05-29T07:07:54.021Z,32544.00
2018-05-29T07:08:54.034Z,32608.00
2018-05-29T07:09:54.031Z,32192.00
2018-05-29T07:10:54.047Z,32128.00
2018-05-29T07:11:54.047Z,31456.00
2018-05-29T07:12:54.049Z,31872.00
2018-05-29T07:13:54.058Z,32992.00
2018-05-29T07:14:54.066Z,33696.00
2018-05-29T07:15:54.067Z,34016.00
2018-05-29T07:16:54.077Z,34080.00
2018-05-29T07:17:54.083Z,33856.00
2018-05-29T07:18:54.090Z,34752.00
2018-05-29T07:19:54.099Z,35456.00
2018-05-29T07:20:54.099Z,36960.00
2018-05-29T07:21:54.106Z,37344.00
2018-05-29T07:22:54.109Z,37952.00
2018-05-29T07:23:54.116Z,38432.00
2018-05-29T07:24:54.127Z,39072.00
2018-05-29T07:25:54.131Z,39296.00
2018-05-29T07:26:54.134Z,38688.00
2018-05-29T07:27:54.143Z,37248.00
2018-05-29T07:28:54.150Z,36736.00
2018-05-29T07:29:54.159Z,37184.00
2018-05-29T07:30:54.160Z,38944.00
2018-05-29T07:31:54.178Z,40128.00
2018-05-29T07:32:54.201Z,39328.00
2018-05-29T07:33:54.179Z,39584.00
2018-05-29T07:34:54.186Z,36000.00
2018-05-29T07:35:54.190Z,25632.00
2018-05-29T07:36:54.200Z,20544.00
2018-05-29T07:37:54.207Z,20064.00
2018-05-29T07:38:54.218Z,19968.00
2018-05-29T07:39:54.220Z,19872.00
2018-05-29T07:40:54.225Z,19872.00
2018-05-29T07:41:54.231Z,19936.00
2018-05-29T07:42:54.240Z,20320.00
2018-05-29T07:43:54.248Z,21024.00
2018-05-29T07:44:54.253Z,26144.00
2018-05-29T07:45:54.258Z,39456.00
2018-05-29T07:46:54.270Z,42400.00
2018-05-29T07:47:54.278Z,42880.00
2018-05-29T07:48:54.309Z,43776.00
2018-05-29T07:49:54.289Z,45216.00
2018-05-29T07:50:54.295Z,45856.00
2018-05-29T07:51:54.309Z,48160.00
2018-05-29T07:52:54.313Z,48064.00
2018-05-29T07:53:54.316Z,47648.00
2018-05-29T07:54:54.325Z,47520.00
2018-05-29T07:55:54.330Z,47520.00
2018-05-29T07:56:54.338Z,47616.00
2018-05-29T07:57:54.346Z,47616.00
2018-05-29T07:58:54.408Z,47680.00
2018-05-29T07:59:54.359Z,47008.00
2018-05-29T08:00:54.408Z,49216.00
2018-05-29T08:01:54.398Z,53184.00
2018-05-29T08:02:54.383Z,53344.00
2018-05-29T08:03:54.410Z,51552.00
2018-05-29T08:04:54.397Z,50848.00
2018-05-29T08:05:54.417Z,51008.00
2018-05-29T08:06:55.051Z,50208.00
2018-05-29T08:07:54.425Z,51008.00
2018-05-29T08:08:54.460Z,54432.00
2018-05-29T08:09:54.439Z,55264.00
2018-05-29T08:10:54.448Z,54304.00
2018-05-29T08:11:54.456Z,54016.00
2018-05-29T08:12:54.467Z,54912.00
2018-05-29T08:13:54.476Z,54304.00
2018-05-29T08:14:54.482Z,52896.00
2018-05-29T08:15:54.484Z,51904.00
2018-05-29T08:16:54.492Z,55296.00
2018-05-29T08:17:54.500Z,59232.00
2018-05-29T08:18:54.511Z,60032.00
2018-05-29T08:19:54.526Z,58752.00
2018-05-29T08:20:54.528Z,57728.00
2018-05-29T08:21:54.533Z,57568.00
2018-05-29T08:22:54.546Z,58752.00
2018-05-29T08:23:54.549Z,60864.00
2018-05-29T08:24:54.561Z,60640.00
2018-05-29T08:25:54.572Z,59968.00
2018-05-29T08:26:54.579Z,61888.00
2018-05-29T08:27:54.586Z,61888.00
2018-05-29T08:28:54.596Z,61056.00
2018-05-29T08:29:54.604Z,61440.00
2018-05-29T08:30:54.609Z,61952.00
2018-05-29T08:31:54.625Z,61472.00
2018-05-29T08:32:54.632Z,61088.00
2018-05-29T08:33:54.642Z,62432.00
2018-05-29T08:34:54.658Z,61152.00
2018-05-29T08:35:54.661Z,61216.00
2018-05-29T08:36:54.667Z,60224.00
2018-05-29T08:37:54.670Z,61088.00
2018-05-29T08:38:54.682Z,62112.00
2018-05-29T08:39:54.695Z,62496.00
2018-05-29T08:40:54.708Z,60576.00
2018-05-29T08:41:54.713Z,59616.00
2018-05-29T08:42:54.722Z,61120.00
2018-05-29T08:43:54.728Z,62752.00
2018-05-29T08:44:54.740Z,62720.00
2018-05-29T08:45:54.747Z,62080.00
2018-05-29T08:46:54.776Z,62336.00
2018-05-29T08:47:54.767Z,60224.00
2018-05-29T08:48:54.782Z,49728.00
2018-05-29T08:49:54.787Z,50240.00
2018-05-29T08:50:54.797Z,26112.00
2018-05-29T08:51:54.804Z,25856.00
2018-05-29T08:52:54.812Z,25856.00
2018-05-29T08:53:54.825Z,25952.00
2018-05-29T08:54:54.835Z,27872.00
2018-05-29T08:55:54.845Z,54976.00
2018-05-29T08:56:54.853Z,64320.00
2018-05-29T08:57:54.861Z,62336.00
2018-05-29T08:58:54.873Z,62208.00
2018-05-29T08:59:54.886Z,65248.00
2018-05-29T09:00:54.895Z,66080.00
2018-05-29T09:01:54.904Z,65248.00
2018-05-29T09:02:54.915Z,67520.00
2018-05-29T09:03:54.966Z,68096.00
2018-05-29T09:04:54.932Z,68736.00
2018-05-29T09:05:54.941Z,70208.00
2018-05-29T09:06:54.951Z,70208.00
2018-05-29T09:07:54.965Z,69216.00
2018-05-29T09:08:54.974Z,68160.00
2018-05-29T09:09:54.982Z,71072.00
2018-05-29T09:10:54.991Z,70816.00
2018-05-29T09:11:55.048Z,71360.00
2018-05-29T09:12:55.012Z,69504.00
2018-05-29T09:13:55.031Z,67872.00
2018-05-29T09:14:55.076Z,66208.00
2018-05-29T09:15:55.043Z,64192.00
2018-05-29T09:16:55.056Z,65696.00
2018-05-29T09:17:55.061Z,70016.00
2018-05-29T09:18:55.076Z,71488.00
2018-05-29T09:19:55.088Z,71104.00
2018-05-29T09:20:55.100Z,72576.00
2018-05-29T09:21:55.105Z,70240.00
2018-05-29T09:22:55.119Z,67744.00
2018-05-29T09:23:55.128Z,69600.00
2018-05-29T09:24:55.137Z,73824.00
2018-05-29T09:25:55.159Z,77024.00
2018-05-29T09:26:55.161Z,76000.00
2018-05-29T09:27:55.171Z,74208.00
2018-05-29T09:28:55.181Z,73792.00
2018-05-29T09:29:55.218Z,76512.00
2018-05-29T09:30:55.204Z,76832.00
2018-05-29T09:31:55.245Z,77184.00
2018-05-29T09:32:55.226Z,79712.00
2018-05-29T09:33:55.236Z,81120.00
2018-05-29T09:34:55.243Z,79872.00
2018-05-29T09:35:55.260Z,79808.00
2018-05-29T09:36:55.271Z,81152.00
2018-05-29T09:37:55.282Z,83008.00
2018-05-29T09:38:55.287Z,82464.00
2018-05-29T09:39:55.302Z,80672.00
2018-05-29T09:40:55.310Z,78688.00
2018-05-29T09:41:55.325Z,79968.00
2018-05-29T09:42:55.335Z,82464.00
2018-05-29T09:43:55.344Z,85952.00
2018-05-29T09:44:55.355Z,84768.00
2018-05-29T09:45:55.441Z,83616.00
2018-05-29T09:46:55.405Z,85472.00
2018-05-29T09:47:55.385Z,86848.00
2018-05-29T09:48:55.393Z,85536.00
2018-05-29T09:49:55.407Z,84288.00
2018-05-29T09:50:55.417Z,85024.00
2018-05-29T09:51:55.429Z,86496.00
2018-05-29T09:52:55.497Z,85440.00
2018-05-29T09:53:55.448Z,83232.00
2018-05-29T09:54:55.464Z,80832.00
2018-05-29T09:55:55.471Z,79072.00
2018-05-29T09:56:55.484Z,81344.00
2018-05-29T09:57:55.494Z,81920.00
2018-05-29T09:58:55.504Z,78336.00
2018-05-29T09:59:55.510Z,78528.00
2018-05-29T10:00:55.526Z,79136.00
2018-05-29T10:01:55.533Z,80992.00
2018-05-29T10:02:55.544Z,79200.00
2018-05-29T10:03:55.560Z,78336.00
2018-05-29T10:04:55.564Z,78400.00
2018-05-29T10:05:55.573Z,79328.00
2018-05-29T10:06:55.600Z,82368.00
2018-05-29T10:07:55.598Z,84224.00
2018-05-29T10:08:55.621Z,84448.00
2018-05-29T10:09:55.612Z,83904.00
2018-05-29T10:10:55.627Z,81632.00
2018-05-29T10:11:55.633Z,83872.00
2018-05-29T10:12:55.646Z,86432.00
2018-05-29T10:13:55.659Z,86336.00
2018-05-29T10:14:55.666Z,83072.00
2018-05-29T10:15:55.677Z,79040.00
2018-05-29T10:16:55.692Z,80704.00
2018-05-29T10:17:55.695Z,78368.00
2018-05-29T10:18:55.706Z,80032.00
2018-05-29T10:19:55.714Z,83328.00
2018-05-29T10:20:55.726Z,82688.00
2018-05-29T10:21:55.740Z,78560.00
2018-05-29T10:22:55.748Z,74784.00
2018-05-29T10:23:55.765Z,76992.00
2018-05-29T10:24:55.770Z,78560.00
2018-05-29T10:25:55.787Z,79168.00
2018-05-29T10:26:55.788Z,82624.00
2018-05-29T10:27:55.798Z,84864.00
2018-05-29T10:28:55.806Z,85472.00
2018-05-29T10:29:55.815Z,87936.00
2018-05-29T10:30:55.888Z,87232.00
2018-05-29T10:31:55.849Z,84448.00
2018-05-29T10:32:55.854Z,85312.00
2018-05-29T10:33:55.855Z,82560.00
2018-05-29T10:34:55.869Z,85376.00
2018-05-29T10:35:55.876Z,85920.00
2018-05-29T10:36:55.890Z,84928.00
2018-05-29T10:37:55.894Z,86016.00
2018-05-29T10:38:55.909Z,86112.00
2018-05-29T10:39:55.925Z,88128.00
2018-05-29T10:40:55.927Z,87008.00
2018-05-29T10:41:55.935Z,84256.00
2018-05-29T10:42:55.949Z,82368.00
2018-05-29T10:43:55.958Z,84928.00
2018-05-29T10:44:55.967Z,88416.00
2018-05-29T10:45:55.981Z,89536.00
2018-05-29T10:46:55.990Z,89088.00
2018-05-29T10:47:55.996Z,87776.00
2018-05-29T10:48:56.025Z,85472.00
2018-05-29T10:49:56.017Z,62144.00
2018-05-29T10:50:56.027Z,78592.00
2018-05-29T10:51:56.039Z,83104.00
2018-05-29T10:52:56.047Z,85696.00
2018-05-29T10:53:56.062Z,89824.00
2018-05-29T10:54:56.066Z,86560.00
2018-05-29T10:55:56.081Z,84512.00
2018-05-29T10:56:56.094Z,85280.00
2018-05-29T10:57:56.103Z,88608.00
2018-05-29T10:58:56.118Z,43360.00
2018-05-29T10:59:56.151Z,83040.00
2018-05-29T11:00:56.139Z,84960.00
2018-05-29T11:01:56.148Z,81312.00
2018-05-29T11:02:56.153Z,80000.00
2018-05-29T11:03:56.173Z,78720.00
2018-05-29T11:04:56.176Z,80096.00
2018-05-29T11:05:56.183Z,83488.00
2018-05-29T11:06:56.251Z,85440.00
2018-05-29T11:07:56.207Z,83904.00
2018-05-29T11:08:56.215Z,82816.00
2018-05-29T11:09:56.230Z,79488.00
2018-05-29T11:10:56.237Z,79008.00
2018-05-29T11:11:56.256Z,81824.00
2018-05-29T11:12:56.258Z,78944.00
2018-05-29T11:13:56.273Z,76768.00
2018-05-29T11:14:56.281Z,77408.00
2018-05-29T11:15:56.291Z,79136.00
2018-05-29T11:16:56.301Z,85088.00
2018-05-29T11:17:56.316Z,89888.00
2018-05-29T11:18:56.329Z,94976.00
2018-05-29T11:19:56.335Z,93728.00
2018-05-29T11:20:56.350Z,92384.00
2018-05-29T11:21:56.360Z,94880.00
2018-05-29T11:22:56.366Z,94688.00
2018-05-29T11:23:56.378Z,87936.00
2018-05-29T11:24:56.391Z,88096.00
2018-05-29T11:25:56.405Z,90208.00
2018-05-29T11:26:56.423Z,90368.00
2018-05-29T11:27:56.419Z,29248.00
2018-05-29T11:28:56.433Z,45856.00
2018-05-29T11:29:56.443Z,97152.00
2018-05-29T11:30:56.457Z,102464.00
2018-05-29T11:31:56.467Z,97024.00
2018-05-29T11:32:56.475Z,97088.00
2018-05-29T11:33:56.492Z,94592.00
2018-05-29T11:34:56.499Z,97088.00
2018-05-29T11:35:56.512Z,100320.00
2018-05-29T11:36:56.595Z,98240.00
2018-05-29T11:37:56.529Z,96928.00
2018-05-29T11:38:56.544Z,99680.00
2018-05-29T11:39:56.562Z,101344.00
2018-05-29T11:40:56.566Z,100512.00
2018-05-29T11:41:56.579Z,98016.00
2018-05-29T11:42:56.586Z,92672.00
2018-05-29T11:43:56.597Z,20704.00
2018-05-29T11:44:56.610Z,95584.00
2018-05-29T11:45:56.623Z,97024.00
2018-05-29T11:46:56.627Z,98592.00
2018-05-29T11:47:56.645Z,102880.00
2018-05-29T11:48:56.648Z,83808.00
2018-05-29T11:49:56.657Z,105888.00
2018-05-29T11:50:56.669Z,103360.00
2018-05-29T11:51:56.681Z,42560.00
2018-05-29T11:52:56.696Z,20224.00
2018-05-29T11:53:56.706Z,22432.00
2018-05-29T11:54:56.770Z,91456.00
2018-05-29T11:55:56.753Z,24320.00
2018-05-29T11:56:56.733Z,21632.00
2018-05-29T11:57:56.747Z,33312.00
2018-05-29T11:58:56.759Z,103936.00
2018-05-29T11:59:56.766Z,101696.00
2018-05-29T12:00:56.780Z,86048.00
2018-05-29T12:01:56.785Z,105856.00
2018-05-29T12:02:56.791Z,105952.00
2018-05-29T12:03:56.801Z,103968.00
2018-05-29T12:04:56.810Z,98784.00
2018-05-29T12:05:56.821Z,100000.00
2018-05-29T12:06:56.834Z,98496.00
2018-05-29T12:07:56.842Z,92832.00
2018-05-29T12:08:56.848Z,92448.00
2018-05-29T12:09:56.858Z,93504.00
2018-05-29T12:10:56.894Z,98272.00
2018-05-29T12:11:56.881Z,102144.00